createdAt,value
2019-05-05T00:05:04.982Z,4.80
2019-05-05T00:10:31.883Z,4.57
2019-05-05T00:16:18.601Z,4.77
2019-05-05T00:21:34.416Z,5.10
2019-05-05T00:26:50.076Z,5.10
2019-05-05T00:32:06.117Z,4.43
2019-05-05T00:37:21.762Z,4.93
2019-05-05T00:42:37.368Z,5.10
2019-05-05T00:48:27.015Z,4.10
2019-05-05T00:53:44.761Z,5.00
2019-05-05T00:59:04.561Z,5.43
2019-05-05T01:04:25.169Z,5.37
2019-05-05T01:09:42.369Z,6.20
2019-05-05T01:14:57.890Z,5.37
2019-05-05T01:20:14.624Z,6.37
2019-05-05T01:25:30.452Z,5.37
2019-05-05T01:30:48.812Z,6.07
2019-05-05T01:36:04.754Z,6.30
2019-05-05T01:41:32.158Z,5.77
2019-05-05T01:46:47.918Z,6.20
2019-05-05T01:52:04.385Z,5.70
2019-05-05T01:57:21.078Z,5.97
2019-05-05T02:02:36.903Z,6.50
2019-05-05T02:07:52.743Z,6.17
2019-05-05T02:13:09.095Z,7.63
2019-05-05T02:18:25.405Z,7.33
2019-05-05T02:23:41.374Z,5.73
2019-05-05T02:29:07.128Z,6.33
2019-05-05T02:34:25.554Z,6.10
2019-05-05T02:39:48.270Z,6.07
2019-05-05T02:45:05.097Z,6.97
2019-05-05T02:50:20.237Z,6.40
2019-05-05T02:55:36.643Z,6.03
2019-05-05T03:01:14.696Z,6.40
2019-05-05T03:06:30.775Z,5.37
2019-05-05T03:11:50.043Z,5.83
2019-05-05T03:17:14.140Z,6.27
2019-05-05T03:22:29.535Z,5.50
2019-05-05T03:27:45.252Z,7.67
2019-05-05T03:33:01.230Z,6.73
2019-05-05T03:38:17.751Z,6.57
2019-05-05T03:43:37.425Z,6.33
2019-05-05T03:48:54.215Z,6.50
2019-05-05T03:54:10.499Z,6.40
2019-05-05T03:59:26.338Z,7.20
2019-05-05T04:04:54.799Z,6.20
2019-05-05T04:10:11.534Z,5.80
2019-05-05T04:15:27.461Z,6.37
2019-05-05T04:20:44.800Z,5.47
2019-05-05T04:26:00.528Z,6.77
2019-05-05T04:31:16.162Z,6.47
2019-05-05T04:36:33.908Z,5.83
2019-05-05T04:41:49.582Z,6.60
2019-05-05T04:47:11.900Z,6.00
2019-05-05T04:52:27.815Z,5.57
2019-05-05T04:57:43.872Z,5.10
2019-05-05T05:03:34.609Z,5.13
2019-05-05T05:08:50.694Z,5.90
2019-05-05T05:14:07.550Z,5.10
2019-05-05T05:19:24.172Z,5.67
2019-05-05T05:24:40.361Z,5.43
2019-05-05T05:29:56.202Z,5.13
2019-05-05T05:35:13.925Z,5.50
2019-05-05T05:40:36.086Z,5.37
2019-05-05T05:46:10.747Z,5.23
2019-05-05T05:51:26.503Z,5.63
2019-05-05T05:56:41.943Z,5.50
2019-05-05T06:02:09.160Z,5.07
2019-05-05T06:07:15.321Z,5.27
2019-05-05T06:12:30.789Z,5.07
2019-05-05T06:17:46.600Z,4.87
2019-05-05T06:23:04.095Z,4.80
2019-05-05T06:28:19.683Z,4.57
2019-05-05T06:33:35.166Z,6.03
2019-05-05T06:38:51.184Z,4.70
2019-05-05T06:44:37.775Z,4.60
2019-05-05T06:49:54.277Z,4.60
2019-05-05T06:55:10.490Z,4.70
2019-05-05T07:00:26.580Z,4.00
2019-05-05T07:05:43.795Z,4.07
2019-05-05T07:10:59.843Z,3.77
2019-05-05T07:16:16.097Z,4.30
2019-05-05T07:21:34.259Z,3.87
2019-05-05T07:26:49.981Z,3.57
2019-05-05T07:32:06.243Z,3.60
2019-05-05T07:37:23.820Z,3.80
2019-05-05T07:42:44.186Z,3.47
2019-05-05T07:48:00.032Z,3.20
2019-05-05T07:53:18.010Z,3.00
2019-05-05T07:58:34.536Z,3.00
2019-05-05T08:03:50.412Z,2.67
2019-05-05T08:09:07.896Z,2.90
2019-05-05T08:14:24.558Z,3.30
2019-05-05T08:19:46.937Z,2.63
2019-05-05T08:25:34.519Z,3.00
2019-05-05T08:31:01.237Z,2.80
2019-05-05T08:36:17.097Z,2.83
2019-05-05T08:41:33.816Z,2.60
2019-05-05T08:46:50.031Z,3.40
2019-05-05T08:52:05.990Z,2.67
2019-05-05T08:57:23.598Z,2.50
2019-05-05T09:02:39.319Z,3.00
2019-05-05T09:07:55.597Z,2.80
2019-05-05T09:13:11.345Z,2.73
2019-05-05T09:18:27.092Z,2.93
2019-05-05T09:23:58.675Z,2.20
2019-05-05T09:29:20.490Z,3.27
2019-05-05T09:34:36.219Z,2.53
2019-05-05T09:39:54.073Z,2.50
2019-05-05T09:45:10.705Z,2.37
2019-05-05T09:50:26.613Z,2.53
2019-05-05T09:55:44.283Z,2.53
2019-05-05T10:01:00.084Z,2.40
2019-05-05T10:06:16.043Z,2.30
2019-05-05T10:11:31.783Z,2.27
2019-05-05T10:16:49.192Z,2.60
2019-05-05T10:22:05.408Z,2.40
2019-05-05T10:27:21.225Z,2.20
2019-05-05T10:32:36.829Z,2.23
2019-05-05T10:37:54.558Z,2.67
2019-05-05T10:43:10.438Z,1.80
2019-05-05T10:48:26.836Z,2.27
2019-05-05T10:53:43.808Z,2.50
2019-05-05T10:59:00.363Z,1.83
2019-05-05T11:04:16.322Z,2.30
2019-05-05T11:09:33.753Z,2.17
2019-05-05T11:14:49.567Z,1.93
2019-05-05T11:20:05.652Z,1.90
2019-05-05T11:25:24.274Z,1.60
2019-05-05T11:30:45.494Z,1.60
2019-05-05T11:36:38.153Z,1.70
2019-05-05T11:41:54.775Z,1.83
2019-05-05T11:47:10.979Z,1.80
2019-05-05T11:52:26.779Z,2.60
2019-05-05T11:57:43.787Z,1.70
2019-05-05T12:02:59.608Z,1.67
2019-05-05T12:08:15.487Z,1.97
2019-05-05T12:13:31.300Z,1.57
2019-05-05T12:18:47.185Z,1.60
2019-05-05T12:24:07.181Z,1.90
2019-05-05T12:29:26.777Z,1.73
2019-05-05T12:34:45.337Z,1.70
2019-05-05T12:40:03.966Z,1.17
2019-05-05T12:45:24.126Z,1.20
2019-05-05T12:50:40.263Z,1.30
2019-05-05T12:55:56.024Z,1.20
2019-05-05T13:01:17.383Z,1.50
2019-05-05T13:06:34.598Z,1.30
2019-05-05T13:11:50.245Z,1.23
2019-05-05T13:17:06.102Z,1.40
2019-05-05T13:22:44.396Z,0.83
2019-05-05T13:28:00.186Z,1.07
2019-05-05T13:33:16.114Z,1.00
2019-05-05T13:38:31.983Z,0.90
2019-05-05T13:43:47.731Z,1.70
2019-05-05T13:49:20.949Z,1.30
2019-05-05T13:54:38.321Z,1.00
2019-05-05T13:59:54.602Z,1.40
2019-05-05T14:05:11.055Z,1.33
2019-05-05T14:10:26.803Z,1.03
2019-05-05T14:15:44.074Z,1.13
2019-05-05T14:20:59.648Z,1.50
2019-05-05T14:26:24.758Z,1.23
2019-05-05T14:31:36.726Z,1.20
2019-05-05T14:37:11.296Z,1.37
2019-05-05T14:42:26.951Z,1.23
2019-05-05T14:47:44.170Z,1.20
2019-05-05T14:53:00.145Z,1.30
2019-05-05T14:58:16.259Z,1.27
2019-05-05T15:03:33.662Z,1.20
2019-05-05T15:09:04.857Z,1.40
2019-05-05T15:14:29.327Z,1.03
2019-05-05T15:19:48.810Z,1.33
2019-05-05T15:25:05.335Z,1.20
2019-05-05T15:30:24.953Z,1.00
2019-05-05T15:35:39.294Z,1.10
2019-05-05T15:40:54.965Z,1.00
2019-05-05T15:46:10.996Z,0.80
2019-05-05T15:51:26.675Z,1.00
2019-05-05T15:56:42.497Z,1.00
2019-05-05T16:01:58.535Z,0.70
2019-05-05T16:07:14.329Z,0.70
2019-05-05T16:12:34.113Z,0.87
2019-05-05T16:17:53.310Z,0.87
2019-05-05T16:23:17.127Z,0.63
2019-05-05T16:28:34.291Z,0.67
2019-05-05T16:33:49.906Z,0.70
2019-05-05T16:39:07.411Z,0.90
2019-05-05T16:44:24.399Z,0.70
2019-05-05T16:49:40.450Z,0.77
2019-05-05T16:55:04.673Z,0.93
2019-05-05T17:00:25.698Z,1.00
2019-05-05T17:05:40.184Z,1.07
2019-05-05T17:10:57.229Z,1.00
2019-05-05T17:16:37.389Z,0.90
2019-05-05T17:22:27.653Z,0.80
2019-05-05T17:27:48.794Z,1.10
2019-05-05T17:33:00.659Z,0.80
2019-05-05T17:38:17.297Z,0.80
2019-05-05T17:43:47.594Z,0.70
2019-05-05T17:49:17.786Z,0.70
2019-05-05T17:54:56.245Z,0.90
2019-05-05T18:00:24.356Z,0.80
2019-05-05T18:06:07.346Z,1.10
2019-05-05T18:11:44.080Z,0.83
2019-05-05T18:17:00.393Z,0.80
2019-05-05T18:22:16.471Z,0.97
2019-05-05T18:27:34.426Z,0.70
2019-05-05T18:32:50.515Z,0.80
2019-05-05T18:38:06.556Z,1.40
2019-05-05T18:43:39.842Z,0.80
2019-05-05T18:48:55.874Z,0.90
2019-05-05T18:54:11.742Z,0.87
2019-05-05T18:59:27.738Z,0.80
2019-05-05T19:04:58.895Z,0.80
2019-05-05T19:10:15.007Z,0.90
2019-05-05T19:15:30.959Z,1.10
2019-05-05T19:21:04.312Z,1.33
2019-05-05T19:26:20.087Z,1.17
2019-05-05T19:31:36.741Z,0.93
2019-05-05T19:36:54.687Z,1.47
2019-05-05T19:42:10.512Z,1.17
2019-05-05T19:47:26.354Z,0.97
2019-05-05T19:52:44.037Z,1.10
2019-05-05T19:57:59.755Z,1.10
2019-05-05T20:03:15.597Z,1.30
2019-05-05T20:08:40.535Z,1.20
2019-05-05T20:13:48.730Z,1.10
2019-05-05T20:19:05.133Z,1.10
2019-05-05T20:24:23.996Z,1.10
2019-05-05T20:29:39.963Z,1.40
2019-05-05T20:35:14.822Z,1.20
2019-05-05T20:40:40.492Z,1.03
2019-05-05T20:45:56.862Z,1.20
2019-05-05T20:51:13.839Z,1.20
2019-05-05T20:56:44.358Z,1.30
2019-05-05T21:02:00.780Z,1.10
2019-05-05T21:07:23.143Z,1.27
2019-05-05T21:12:45.765Z,1.40
2019-05-05T21:18:04.843Z,1.30
2019-05-05T21:23:29.487Z,1.47
2019-05-05T21:28:57.045Z,1.37
2019-05-05T21:34:14.030Z,1.40
2019-05-05T21:39:34.876Z,1.70
2019-05-05T21:44:54.078Z,1.40
2019-05-05T21:50:20.165Z,1.30
2019-05-05T21:55:55.340Z,1.63
2019-05-05T22:01:15.292Z,1.50
2019-05-05T22:06:33.563Z,1.83
2019-05-05T22:11:48.814Z,2.00
2019-05-05T22:17:04.540Z,1.80
2019-05-05T22:22:22.285Z,1.83
2019-05-05T22:27:38.030Z,1.90
2019-05-05T22:32:53.439Z,1.60
2019-05-05T22:38:09.216Z,1.73
2019-05-05T22:43:25.847Z,1.80
2019-05-05T22:48:44.066Z,1.50
2019-05-05T22:53:59.896Z,2.23
2019-05-05T22:59:15.468Z,1.70
2019-05-05T23:04:47.866Z,2.00
2019-05-05T23:10:04.664Z,1.93
2019-05-05T23:15:20.625Z,1.60
2019-05-05T23:21:15.580Z,1.43
2019-05-05T23:26:31.484Z,1.57
2019-05-05T23:31:47.513Z,1.70
2019-05-05T23:37:04.321Z,1.90
2019-05-05T23:42:20.473Z,2.03
2019-05-05T23:47:36.345Z,1.70
2019-05-05T23:52:54.161Z,1.70
2019-05-05T23:58:10.008Z,1.70
